Time;durP1;ratioP1;P1;durP2;ratioP2;P2;SDS_P1;SDS_P2;PMS_P1;PMS_P2;Temp;Humidity;BMP_temperature;BMP_pressure;BME280_temperature;BME280_humidity;BME280_pressure;Samples;Min_cycle;Max_cycle;Signal;HPM_P1;HPM_P2
2024/02/16 00:02:06;;;;;;;22.70;21.83;;;21.30;56.30;;;;;;5041247;28;20469;-65
2024/02/16 00:04:33;;;;;;;22.47;21.57;;;21.30;56.30;;;;;;5049826;28;20472;-67
2024/02/16 00:07:00;;;;;;;22.77;21.77;;;21.30;56.50;;;;;;5046050;28;20927;-67
2024/02/16 00:09:28;;;;;;;23.27;22.27;;;21.30;57.00;;;;;;5044977;28;20503;-67
2024/02/16 00:11:56;;;;;;;23.43;22.53;;;21.30;57.40;;;;;;5042617;28;20437;-67
2024/02/16 00:14:23;;;;;;;25.40;24.40;;;21.30;57.70;;;;;;5042874;28;20520;-67
2024/02/16 00:16:50;;;;;;;22.30;21.50;;;21.30;58.00;;;;;;5045818;28;20475;-67
2024/02/16 00:19:17;;;;;;;23.90;23.00;;;21.30;58.30;;;;;;5045894;28;20432;-67
2024/02/16 00:21:44;;;;;;;22.63;21.73;;;21.20;58.40;;;;;;5042602;28;20481;-67
2024/02/16 00:24:11;;;;;;;22.80;21.80;;;21.20;58.60;;;;;;5042448;28;20496;-67
2024/02/16 00:26:39;;;;;;;22.23;21.43;;;21.20;58.70;;;;;;5044489;28;20484;-67
2024/02/16 00:29:08;;;;;;;22.77;21.90;;;21.20;58.80;;;;;;5045581;28;20487;-67
2024/02/16 00:31:35;;;;;;;22.97;22.00;;;21.20;58.90;;;;;;5043605;28;20522;-67
2024/02/16 00:34:02;;;;;;;22.97;22.17;;;21.20;59.00;;;;;;5042198;28;20519;-66
2024/02/16 00:36:30;;;;;;;22.23;21.43;;;21.20;59.10;;;;;;5042998;28;20476;-65
2024/02/16 00:38:57;;;;;;;22.00;21.20;;;21.20;59.20;;;;;;5045494;28;20440;-65
2024/02/16 00:41:24;;;;;;;22.90;22.00;;;21.20;59.30;;;;;;5045163;28;20860;-65
2024/02/16 00:43:52;;;;;;;22.97;22.07;;;21.20;59.40;;;;;;5041984;28;20884;-65
2024/02/16 00:46:22;;;;;;;22.40;21.47;;;21.20;59.50;;;;;;5041846;28;20935;-64
2024/02/16 00:48:49;;;;;;;22.60;21.70;;;21.20;59.50;;;;;;5034171;28;20567;-65
2024/02/16 00:51:16;;;;;;;22.50;21.70;;;21.20;59.60;;;;;;5041996;28;20465;-65
2024/02/16 00:53:43;;;;;;;21.90;21.10;;;21.20;59.70;;;;;;5052184;28;20495;-65
2024/02/16 00:56:11;;;;;;;22.33;21.53;;;21.20;59.70;;;;;;5046026;28;20469;-64
2024/02/16 00:58:41;;;;;;;22.83;21.83;;;21.20;59.80;;;;;;5043801;28;20784;-64
2024/02/16 01:01:10;;;;;;;22.67;21.77;;;21.20;59.80;;;;;;5045098;28;20437;-64
2024/02/16 01:03:39;;;;;;;23.30;22.40;;;21.20;59.90;;;;;;5044749;28;20901;-65
2024/02/16 01:06:08;;;;;;;22.20;21.40;;;21.20;60.00;;;;;;5044837;28;20444;-65
2024/02/16 01:08:35;;;;;;;22.50;21.70;;;21.20;60.10;;;;;;5042884;28;21081;-65
2024/02/16 01:11:02;;;;;;;22.60;21.70;;;21.20;60.10;;;;;;5041433;28;20945;-65
2024/02/16 01:13:29;;;;;;;22.10;21.33;;;21.20;60.20;;;;;;5049977;28;20554;-65
2024/02/16 01:15:56;;;;;;;22.83;21.83;;;21.20;60.30;;;;;;5044455;28;20473;-65
2024/02/16 01:18:23;;;;;;;22.10;21.20;;;21.20;60.40;;;;;;5044545;28;20471;-67
2024/02/16 01:20:51;;;;;;;22.40;21.50;;;21.20;60.40;;;;;;5041493;28;20475;-64
2024/02/16 01:23:18;;;;;;;22.73;21.93;;;21.20;60.50;;;;;;5041464;28;20481;-65
2024/02/16 01:25:46;;;;;;;23.00;22.13;;;21.20;60.60;;;;;;5043962;28;20469;-66
2024/02/16 01:28:13;;;;;;;22.43;21.63;;;21.20;60.50;;;;;;5044515;28;20999;-65
2024/02/16 01:30:40;;;;;;;22.20;21.40;;;21.20;60.60;;;;;;5042134;28;20451;-65
2024/02/16 01:33:07;;;;;;;22.73;21.93;;;21.20;60.60;;;;;;5041063;28;21171;-64
2024/02/16 01:35:34;;;;;;;21.93;21.13;;;21.20;60.70;;;;;;5042284;28;20469;-64
2024/02/16 01:38:02;;;;;;;24.60;23.70;;;21.10;60.60;;;;;;5044420;28;20471;-64
2024/02/16 01:40:29;;;;;;;24.40;23.40;;;21.10;60.70;;;;;;5043401;28;20479;-65
2024/02/16 01:42:56;;;;;;;24.73;23.83;;;21.10;60.80;;;;;;5041509;28;20495;-65
2024/02/16 01:45:23;;;;;;;28.33;27.33;;;21.10;60.80;;;;;;5040745;28;20465;-66
2024/02/16 01:47:52;;;;;;;25.23;24.30;;;21.10;60.90;;;;;;5032695;28;20850;-65
2024/02/16 01:50:20;;;;;;;24.90;23.90;;;21.10;61.00;;;;;;5040901;28;20438;-64
2024/02/16 01:52:48;;;;;;;24.77;23.87;;;21.10;60.90;;;;;;5048159;28;20452;-65
2024/02/16 01:55:17;;;;;;;26.17;24.97;;;21.10;61.10;;;;;;5046898;28;20468;-66
2024/02/16 01:57:46;;;;;;;21.33;20.63;;;21.10;61.20;;;;;;5041141;28;20477;-67
2024/02/16 02:00:14;;;;;;;21.67;20.97;;;21.10;61.20;;;;;;5040392;28;20465;-67
2024/02/16 02:02:44;;;;;;;22.63;21.83;;;21.10;61.20;;;;;;5048109;28;20460;-67
2024/02/16 02:05:11;;;;;;;22.00;21.20;;;21.10;61.20;;;;;;5040379;28;20868;-67
2024/02/16 02:07:38;;;;;;;22.70;21.90;;;21.10;61.30;;;;;;5042147;28;20445;-67
2024/02/16 02:10:06;;;;;;;22.03;21.20;;;21.10;61.30;;;;;;5043706;28;20574;-67
2024/02/16 02:12:34;;;;;;;22.10;21.30;;;21.00;61.30;;;;;;5042853;28;20485;-67
2024/02/16 02:15:02;;;;;;;22.17;21.43;;;21.10;61.40;;;;;;5043617;28;20440;-67
2024/02/16 02:17:29;;;;;;;22.40;21.60;;;21.10;61.50;;;;;;5042983;28;20502;-67
2024/02/16 02:19:56;;;;;;;22.10;21.30;;;21.10;61.50;;;;;;5040337;28;20468;-67
2024/02/16 02:22:26;;;;;;;22.50;21.70;;;21.10;61.50;;;;;;5040356;28;20465;-68
2024/02/16 02:24:55;;;;;;;23.60;22.70;;;21.10;61.50;;;;;;5032269;28;20924;-67
2024/02/16 02:27:22;;;;;;;21.67;20.97;;;21.10;61.60;;;;;;5046724;28;20451;-67
2024/02/16 02:29:49;;;;;;;21.80;21.00;;;21.10;61.60;;;;;;5040257;28;20919;-67
2024/02/16 02:32:16;;;;;;;22.10;21.30;;;21.00;61.50;;;;;;5040008;28;20868;-67
2024/02/16 02:34:44;;;;;;;23.00;22.10;;;21.00;61.60;;;;;;5042282;28;20917;-67
2024/02/16 02:37:11;;;;;;;21.47;20.77;;;21.00;61.50;;;;;;5043357;28;20440;-67
2024/02/16 02:39:39;;;;;;;22.00;21.20;;;21.00;61.60;;;;;;5041600;28;20479;-67
2024/02/16 02:42:08;;;;;;;22.33;21.53;;;21.00;61.60;;;;;;5039942;28;20864;-67
2024/02/16 02:44:35;;;;;;;22.20;21.40;;;21.00;61.60;;;;;;5040787;28;20928;-67
2024/02/16 02:47:02;;;;;;;21.90;21.07;;;21.00;61.60;;;;;;5043366;28;20543;-67
2024/02/16 02:49:29;;;;;;;22.10;21.30;;;21.00;61.70;;;;;;5042561;28;20480;-67
2024/02/16 02:51:56;;;;;;;22.20;21.40;;;21.00;61.70;;;;;;5039903;28;20945;-67
2024/02/16 02:54:22;;;;;;;22.07;21.37;;;21.00;61.80;;;;;;5047286;28;20488;-67
2024/02/16 02:56:51;;;;;;;22.03;21.33;;;21.00;61.80;;;;;;5039894;28;20469;-67
2024/02/16 02:59:18;;;;;;;22.20;21.50;;;21.00;61.90;;;;;;5044752;28;20963;-67
2024/02/16 03:01:45;;;;;;;22.50;21.70;;;21.00;62.00;;;;;;5040469;28;20495;-67
2024/02/16 03:04:12;;;;;;;22.80;22.00;;;21.00;62.10;;;;;;5039600;28;20540;-67
2024/02/16 03:06:39;;;;;;;22.40;21.60;;;21.00;62.00;;;;;;5041294;28;20480;-67
2024/02/16 03:09:06;;;;;;;22.80;22.00;;;21.00;62.10;;;;;;5045962;28;20504;-67
2024/02/16 03:11:33;;;;;;;22.97;21.87;;;21.00;62.10;;;;;;5040184;28;20445;-65
2024/02/16 03:14:01;;;;;;;23.10;22.20;;;21.00;62.10;;;;;;5042945;28;20456;-65
2024/02/16 03:16:28;;;;;;;22.60;21.80;;;21.00;62.10;;;;;;5042808;28;20836;-65
2024/02/16 03:18:56;;;;;;;22.53;21.73;;;21.00;62.20;;;;;;5039646;28;20437;-65
2024/02/16 03:21:22;;;;;;;22.27;21.37;;;20.90;62.10;;;;;;5039457;28;20544;-65
2024/02/16 03:23:49;;;;;;;22.80;22.00;;;20.90;62.10;;;;;;5042173;28;20488;-65
2024/02/16 03:26:16;;;;;;;22.20;21.30;;;20.90;62.10;;;;;;5042900;28;20464;-65
2024/02/16 03:28:47;;;;;;;22.40;21.50;;;20.90;62.10;;;;;;5040779;28;20518;-65
2024/02/16 03:31:19;;;;;;;22.33;21.53;;;20.90;62.10;;;;;;5039629;28;20521;-65
2024/02/16 03:33:46;;;;;;;22.53;21.60;;;20.90;62.00;;;;;;5041581;28;20983;-65
2024/02/16 03:36:14;;;;;;;22.10;21.30;;;20.90;62.10;;;;;;5043095;28;20475;-65
2024/02/16 03:38:43;;;;;;;23.03;22.23;;;20.90;62.00;;;;;;5043050;28;20501;-65
2024/02/16 03:41:14;;;;;;;22.70;21.90;;;20.90;62.00;;;;;;5043046;28;20432;-65
2024/02/16 03:43:40;;;;;;;22.23;21.43;;;20.90;62.10;;;;;;5044475;28;20537;-65
2024/02/16 03:46:08;;;;;;;23.07;22.17;;;20.90;62.10;;;;;;5046801;28;20959;-67
2024/02/16 03:48:36;;;;;;;23.10;22.20;;;20.90;62.10;;;;;;5045351;28;20440;-68
2024/02/16 03:51:03;;;;;;;22.80;22.00;;;20.90;62.10;;;;;;5042839;28;20473;-67
2024/02/16 03:53:30;;;;;;;21.77;21.03;;;20.90;62.20;;;;;;5042921;28;20467;-68
2024/02/16 03:55:57;;;;;;;22.47;21.67;;;20.90;62.20;;;;;;5046692;28;20467;-68
2024/02/16 03:58:25;;;;;;;22.30;21.50;;;20.90;62.20;;;;;;5046282;28;20468;-67
2024/02/16 04:00:52;;;;;;;23.37;22.47;;;20.90;62.20;;;;;;5042931;28;20952;-65
2024/02/16 04:03:19;;;;;;;23.57;22.67;;;20.90;62.30;;;;;;5042690;28;20457;-68
2024/02/16 04:05:48;;;;;;;23.30;22.50;;;20.90;62.40;;;;;;5045352;28;20888;-67
2024/02/16 04:08:15;;;;;;;23.90;23.10;;;20.90;62.40;;;;;;5046232;28;20479;-68
2024/02/16 04:10:42;;;;;;;23.40;22.60;;;20.90;62.40;;;;;;5044048;28;20507;-67
2024/02/16 04:13:08;;;;;;;23.30;22.50;;;20.90;62.50;;;;;;5042657;28;20485;-67
2024/02/16 04:15:35;;;;;;;23.47;22.57;;;20.80;62.40;;;;;;5043237;28;20438;-67
2024/02/16 04:18:02;;;;;;;23.40;22.60;;;20.80;63.20;;;;;;5045825;28;20476;-67
2024/02/16 04:20:29;;;;;;;23.40;22.60;;;20.80;62.40;;;;;;5045756;28;20463;-68
2024/02/16 04:22:57;;;;;;;23.90;23.00;;;20.80;62.40;;;;;;5034198;28;20495;-66
2024/02/16 04:25:24;;;;;;;24.00;23.10;;;20.80;62.40;;;;;;5042594;28;20874;-66
2024/02/16 04:27:51;;;;;;;24.13;23.30;;;20.80;62.40;;;;;;5045110;28;20464;-68
2024/02/16 04:30:18;;;;;;;24.17;23.23;;;20.80;62.30;;;;;;5045503;28;20480;-66
2024/02/16 04:32:45;;;;;;;24.13;23.33;;;20.80;62.40;;;;;;5043817;28;20578;-67
2024/02/16 04:35:12;;;;;;;24.17;23.37;;;20.80;62.30;;;;;;5042363;28;20503;-67
2024/02/16 04:37:39;;;;;;;23.40;22.60;;;20.80;62.40;;;;;;5043186;28;20452;-67
2024/02/16 04:40:11;;;;;;;24.70;23.80;;;20.80;62.40;;;;;;5045513;28;20432;-67
2024/02/16 04:42:40;;;;;;;24.77;23.87;;;20.80;62.40;;;;;;5044462;28;20878;-67
2024/02/16 04:45:07;;;;;;;24.10;23.30;;;20.80;63.20;;;;;;5042204;28;20437;-67
2024/02/16 04:47:35;;;;;;;24.00;23.10;;;20.80;62.50;;;;;;5049436;28;20436;-67
2024/02/16 04:50:02;;;;;;;23.13;22.33;;;20.90;62.70;;;;;;5041001;28;20523;-67
2024/02/16 04:52:29;;;;;;;23.40;22.50;;;20.80;62.60;;;;;;5041981;28;20548;-67
2024/02/16 04:54:56;;;;;;;22.87;22.07;;;20.80;62.60;;;;;;5039578;28;20528;-67
2024/02/16 04:57:24;;;;;;;22.60;21.80;;;20.80;62.50;;;;;;5041649;28;20469;-67
2024/02/16 04:59:51;;;;;;;28.57;27.27;;;20.80;62.60;;;;;;5044258;28;20476;-67
2024/02/16 05:02:18;;;;;;;24.70;23.80;;;20.80;62.50;;;;;;5045378;28;20784;-67
2024/02/16 05:04:45;;;;;;;24.00;23.20;;;20.80;62.50;;;;;;5043111;28;20476;-67
2024/02/16 05:07:12;;;;;;;23.73;22.93;;;20.80;62.40;;;;;;5041526;28;20479;-67
2024/02/16 05:09:39;;;;;;;24.70;23.80;;;20.80;62.40;;;;;;5042229;28;20512;-67
2024/02/16 05:12:08;;;;;;;23.70;22.90;;;20.80;62.30;;;;;;5044967;28;20444;-67
2024/02/16 05:14:36;;;;;;;24.57;23.67;;;20.80;62.40;;;;;;5044534;28;20479;-67
2024/02/16 05:17:03;;;;;;;23.90;23.07;;;20.80;62.40;;;;;;5041542;28;20841;-66
2024/02/16 05:19:33;;;;;;;26.13;25.20;;;20.80;62.30;;;;;;5041278;28;20953;-65
2024/02/16 05:22:00;;;;;;;24.83;23.93;;;20.80;62.30;;;;;;5033609;28;20895;-64
2024/02/16 05:24:27;;;;;;;26.20;25.30;;;20.80;62.30;;;;;;5048053;28;20874;-67
2024/02/16 05:26:55;;;;;;;24.80;24.00;;;20.80;62.30;;;;;;5041708;28;20916;-65
2024/02/16 05:29:22;;;;;;;27.00;24.30;;;20.80;62.20;;;;;;5041113;28;20563;-66
2024/02/16 05:31:53;;;;;;;26.73;25.50;;;20.80;62.20;;;;;;5043286;28;20477;-65
2024/02/16 05:34:20;;;;;;;24.90;23.70;;;20.80;63.00;;;;;;5044526;28;20499;-65
2024/02/16 05:36:47;;;;;;;25.97;24.80;;;20.80;63.80;;;;;;5042216;28;20479;-66
2024/02/16 05:39:26;;;;;;;27.73;25.83;;;20.80;64.70;;;;;;5040956;28;20469;-65
2024/02/16 05:41:54;;;;;;;28.43;26.23;;;20.80;65.90;;;;;;5043094;28;20793;-65
2024/02/16 05:44:21;;;;;;;30.17;28.33;;;20.80;67.70;;;;;;5049996;28;20464;-64
2024/02/16 05:46:47;;;;;;;28.63;26.13;;;20.80;70.20;;;;;;5046438;28;20481;-62
2024/02/16 05:49:16;;;;;;;27.63;25.90;;;20.80;72.20;;;;;;5045213;28;20476;-64
2024/02/16 05:52:00;;;;;;;32.23;29.80;;;20.80;73.50;;;;;;5033943;28;20441;-64
2024/02/16 05:54:27;;;;;;;29.37;27.50;;;20.90;73.90;;;;;;5044879;28;20468;-64
2024/02/16 05:56:54;;;;;;;28.53;26.40;;;20.90;74.80;;;;;;5043131;28;20452;-64
2024/02/16 05:59:22;;;;;;;33.57;27.53;;;20.90;75.20;;;;;;5044220;28;20437;-63
2024/02/16 06:01:49;;;;;;;27.57;25.97;;;20.90;75.30;;;;;;5040902;28;20930;-63
2024/02/16 06:04:17;;;;;;;30.40;28.00;;;20.90;75.40;;;;;;5040520;28;20889;-63
2024/02/16 06:06:44;;;;;;;28.67;26.93;;;20.90;75.20;;;;;;5044539;28;20483;-65
2024/02/16 06:09:11;;;;;;;31.80;29.73;;;20.90;75.00;;;;;;5047695;28;20475;-64
2024/02/16 06:11:39;;;;;;;28.57;26.70;;;20.90;75.10;;;;;;5046658;28;20468;-64
2024/02/16 06:14:05;;;;;;;28.47;26.00;;;20.90;75.40;;;;;;5043196;28;20460;-64
2024/02/16 06:16:33;;;;;;;26.90;25.10;;;20.90;74.00;;;;;;5040097;28;20468;-64
2024/02/16 06:19:00;;;;;;;27.27;25.87;;;20.90;73.90;;;;;;5031959;28;20499;-64
2024/02/16 06:21:28;;;;;;;29.73;27.13;;;20.90;73.70;;;;;;5040116;28;20841;-64
2024/02/16 06:23:55;;;;;;;27.63;25.00;;;20.90;73.50;;;;;;5039847;28;20469;-64
2024/02/16 06:26:22;;;;;;;27.53;25.60;;;20.90;73.20;;;;;;5046499;28;20476;-64
2024/02/16 06:28:49;;;;;;;27.90;26.20;;;20.90;72.80;;;;;;5043272;28;20476;-64
2024/02/16 06:31:16;;;;;;;28.37;26.87;;;20.90;72.40;;;;;;5043188;28;20484;-64
2024/02/16 06:33:42;;;;;;;27.50;26.10;;;20.90;72.20;;;;;;5041803;28;20500;-64
2024/02/16 06:36:10;;;;;;;28.13;26.40;;;20.90;71.90;;;;;;5039929;28;20468;-64
2024/02/16 06:38:38;;;;;;;27.10;25.30;;;20.90;71.50;;;;;;5040017;28;20442;-64
2024/02/16 06:41:05;;;;;;;25.13;23.80;;;20.90;71.30;;;;;;5043034;28;20464;-64
2024/02/16 06:43:32;;;;;;;27.00;25.70;;;20.90;71.10;;;;;;5043239;28;20491;-64
2024/02/16 06:45:59;;;;;;;26.03;24.43;;;20.90;70.90;;;;;;5039835;28;20441;-64
2024/02/16 06:48:26;;;;;;;27.40;25.93;;;20.90;70.50;;;;;;5039662;28;20472;-64
2024/02/16 06:50:53;;;;;;;26.70;25.40;;;20.90;70.40;;;;;;5041822;28;20563;-64
2024/02/16 06:53:20;;;;;;;25.70;24.60;;;20.90;70.20;;;;;;5043055;28;20522;-62
2024/02/16 06:55:49;;;;;;;26.07;24.50;;;20.90;69.90;;;;;;5041436;28;20473;-64
2024/02/16 06:58:15;;;;;;;27.23;25.33;;;20.90;69.70;;;;;;5047922;28;20962;-64
2024/02/16 07:00:43;;;;;;;28.67;26.80;;;20.90;69.50;;;;;;5046624;28;20471;-64
2024/02/16 07:03:10;;;;;;;27.67;26.00;;;20.90;69.30;;;;;;5045000;28;20509;-64
2024/02/16 07:05:37;;;;;;;25.57;23.93;;;20.90;69.20;;;;;;5042880;28;20456;-64
2024/02/16 07:08:06;;;;;;;27.47;26.00;;;20.90;69.00;;;;;;5039481;28;21006;-64
2024/02/16 07:10:33;;;;;;;28.90;27.40;;;20.90;69.00;;;;;;5039442;28;20487;-64
2024/02/16 07:13:01;;;;;;;27.63;26.43;;;20.90;68.70;;;;;;5043626;28;20506;-65
2024/02/16 07:15:28;;;;;;;28.50;27.00;;;20.90;68.50;;;;;;5046777;28;20888;-65
2024/02/16 07:17:55;;;;;;;29.80;28.20;;;20.90;68.30;;;;;;5044291;28;20959;-65
2024/02/16 07:20:22;;;;;;;28.60;27.00;;;20.90;68.20;;;;;;5043453;28;20888;-65
2024/02/16 07:22:51;;;;;;;27.13;26.00;;;20.80;68.00;;;;;;5044759;28;20893;-64
2024/02/16 07:25:18;;;;;;;28.43;26.87;;;20.80;67.80;;;;;;5049485;28;20448;-64
2024/02/16 07:27:45;;;;;;;28.07;26.40;;;20.80;67.70;;;;;;5049430;28;20467;-65
2024/02/16 07:30:14;;;;;;;27.93;26.47;;;20.80;67.50;;;;;;5047047;28;20500;-65
2024/02/16 07:32:41;;;;;;;28.23;26.90;;;20.80;67.40;;;;;;5046807;28;20496;-64
2024/02/16 07:35:10;;;;;;;28.10;26.70;;;20.80;67.30;;;;;;5049969;28;20471;-64
2024/02/16 07:37:36;;;;;;;27.17;25.93;;;20.80;67.20;;;;;;5050720;28;20449;-64
2024/02/16 07:40:06;;;;;;;27.90;26.47;;;20.80;67.10;;;;;;5038648;28;20472;-64
2024/02/16 07:42:33;;;;;;;28.27;26.87;;;20.80;66.90;;;;;;5046536;28;20835;-64
2024/02/16 07:45:00;;;;;;;26.80;25.60;;;20.80;66.70;;;;;;5043381;28;20473;-64
2024/02/16 07:47:28;;;;;;;27.03;25.90;;;20.80;66.60;;;;;;5042936;28;20876;-64
2024/02/16 07:49:55;;;;;;;26.80;25.70;;;20.80;66.60;;;;;;5045225;28;20445;-64
2024/02/16 07:52:22;;;;;;;27.13;25.70;;;20.80;66.40;;;;;;5046296;28;20471;-64
2024/02/16 07:54:51;;;;;;;28.40;27.10;;;20.80;66.30;;;;;;5046148;28;20479;-64
2024/02/16 07:57:18;;;;;;;27.60;26.27;;;20.80;66.20;;;;;;5046071;28;20784;-64
2024/02/16 07:59:45;;;;;;;27.90;26.70;;;20.80;66.10;;;;;;5045991;28;20475;-64
2024/02/16 08:02:15;;;;;;;28.97;27.47;;;20.80;66.00;;;;;;5045898;28;20475;-64
2024/02/16 08:04:44;;;;;;;28.50;27.30;;;20.80;65.90;;;;;;5045398;28;20872;-64
2024/02/16 08:07:10;;;;;;;29.67;28.03;;;20.80;65.80;;;;;;5042462;28;20533;-64
2024/02/16 08:09:37;;;;;;;29.10;27.73;;;20.80;65.80;;;;;;5045241;28;20465;-64
2024/02/16 08:12:06;;;;;;;28.07;26.77;;;20.80;65.70;;;;;;5038164;28;20511;-63
2024/02/16 08:14:33;;;;;;;32.40;31.10;;;20.80;65.60;;;;;;5043751;28;20473;-64
2024/02/16 08:17:00;;;;;;;28.43;27.33;;;20.80;65.40;;;;;;5045084;28;20904;-64
2024/02/16 08:19:33;;;;;;;28.50;27.30;;;20.80;65.40;;;;;;5045706;28;20468;-65
2024/02/16 08:22:02;;;;;;;29.77;28.07;;;20.80;65.40;;;;;;5042724;28;20937;-64
2024/02/16 08:24:28;;;;;;;29.03;27.83;;;20.80;65.20;;;;;;5041253;28;20473;-65
2024/02/16 08:26:56;;;;;;;27.03;25.73;;;20.80;66.00;;;;;;5044247;28;20441;-65
2024/02/16 08:29:23;;;;;;;26.70;25.40;;;20.80;65.10;;;;;;5045494;28;20472;-65
2024/02/16 08:31:50;;;;;;;28.13;26.93;;;20.80;65.10;;;;;;5043853;28;21033;-64
2024/02/16 08:34:17;;;;;;;26.63;25.33;;;20.80;65.00;;;;;;5041831;28;20817;-64
2024/02/16 08:36:45;;;;;;;27.93;26.73;;;20.80;65.00;;;;;;5042427;28;20473;-64
2024/02/16 08:39:14;;;;;;;27.70;26.50;;;20.80;64.90;;;;;;5045481;28;20441;-65
2024/02/16 08:41:41;;;;;;;27.07;25.77;;;20.80;64.80;;;;;;5046455;28;20963;-64
2024/02/16 08:44:09;;;;;;;28.43;27.03;;;20.80;64.70;;;;;;5045639;28;20495;-65
2024/02/16 08:46:36;;;;;;;29.40;27.73;;;20.80;64.70;;;;;;5045892;28;20445;-64
2024/02/16 08:49:03;;;;;;;26.13;25.03;;;20.80;64.60;;;;;;5043550;28;20452;-64
2024/02/16 08:51:30;;;;;;;27.13;25.93;;;20.80;64.60;;;;;;5041534;28;20917;-64
2024/02/16 08:53:57;;;;;;;26.07;24.97;;;20.80;64.40;;;;;;5043640;28;20497;-64
2024/02/16 08:56:25;;;;;;;27.03;25.93;;;20.80;64.40;;;;;;5045022;28;20465;-64
2024/02/16 08:58:52;;;;;;;28.20;26.70;;;20.80;64.40;;;;;;5043613;28;20483;-64
2024/02/16 09:01:19;;;;;;;28.80;27.13;;;20.80;64.30;;;;;;5047078;28;20873;-64
2024/02/16 09:03:47;;;;;;;30.53;29.23;;;20.80;64.30;;;;;;5044899;28;20499;-64
2024/02/16 09:06:14;;;;;;;28.33;27.13;;;20.80;64.30;;;;;;5044949;28;20449;-64
2024/02/16 09:08:40;;;;;;;27.53;26.23;;;20.80;64.20;;;;;;5036762;28;20859;-64
2024/02/16 09:11:07;;;;;;;27.30;26.00;;;20.80;64.10;;;;;;5033133;28;20915;-63
2024/02/16 09:13:37;;;;;;;28.27;27.27;;;20.80;64.10;;;;;;5033334;28;20988;-64
2024/02/16 09:16:04;;;;;;;28.93;27.83;;;20.80;64.00;;;;;;5033302;28;20472;-63
2024/02/16 09:18:31;;;;;;;31.80;30.40;;;20.80;64.00;;;;;;5033280;28;20469;-63
2024/02/16 09:20:58;;;;;;;29.60;28.50;;;20.80;63.90;;;;;;5033208;28;20440;-64
2024/02/16 09:23:25;;;;;;;30.07;28.87;;;20.80;64.70;;;;;;5033063;28;20492;-65
2024/02/16 09:25:52;;;;;;;28.57;27.47;;;20.80;63.90;;;;;;5032917;28;20441;-65
2024/02/16 09:28:19;;;;;;;29.60;28.33;;;20.80;63.90;;;;;;5032967;28;20903;-64
2024/02/16 09:30:47;;;;;;;27.17;25.97;;;20.80;63.80;;;;;;5032735;28;20567;-65
2024/02/16 09:33:14;;;;;;;28.00;26.60;;;20.80;63.80;;;;;;5032783;28;20504;-64
2024/02/16 09:35:41;;;;;;;27.43;25.87;;;20.80;63.70;;;;;;5032579;28;20925;-64
2024/02/16 09:38:10;;;;;;;27.60;26.47;;;20.80;63.60;;;;;;5032896;28;20872;-64
2024/02/16 09:40:38;;;;;;;28.23;27.13;;;20.80;63.60;;;;;;5032823;28;20444;-63
2024/02/16 09:43:05;;;;;;;29.90;28.50;;;20.80;63.50;;;;;;5032606;28;20469;-64
2024/02/16 09:45:34;;;;;;;27.60;26.27;;;20.80;63.50;;;;;;5032661;28;20479;-65
2024/02/16 09:48:05;;;;;;;28.73;27.53;;;20.80;63.50;;;;;;5032614;28;20433;-64
2024/02/16 09:50:32;;;;;;;27.33;26.23;;;20.80;63.40;;;;;;5032666;28;20476;-64
2024/02/16 09:52:59;;;;;;;29.70;28.40;;;20.80;63.40;;;;;;5032368;28;20564;-63
2024/02/16 09:55:27;;;;;;;29.53;28.13;;;20.80;63.30;;;;;;5032423;28;20877;-65
2024/02/16 09:58:00;;;;;;;29.37;28.20;;;20.80;63.30;;;;;;5032364;28;20975;-65
2024/02/16 10:00:27;;;;;;;29.90;28.70;;;20.70;63.20;;;;;;5032514;28;20441;-64
2024/02/16 10:02:55;;;;;;;28.83;27.63;;;20.70;63.10;;;;;;5032273;28;20465;-64
2024/02/16 10:05:23;;;;;;;28.10;26.90;;;20.70;63.10;;;;;;5032238;28;20451;-64
2024/02/16 10:07:50;;;;;;;27.80;26.60;;;20.70;63.00;;;;;;5032213;28;20479;-64
2024/02/16 10:10:24;;;;;;;28.60;27.50;;;20.70;63.00;;;;;;5032360;28;20504;-64
2024/02/16 10:12:51;;;;;;;28.30;27.10;;;20.70;63.00;;;;;;5033446;28;20511;-65
2024/02/16 10:15:22;;;;;;;27.70;26.60;;;20.70;63.00;;;;;;5034430;28;20940;-64
2024/02/16 10:17:58;;;;;;;28.07;26.97;;;20.70;63.00;;;;;;5032005;28;20445;-64
2024/02/16 10:20:27;;;;;;;27.90;26.80;;;20.70;62.90;;;;;;5031976;28;20809;-64
2024/02/16 10:23:04;;;;;;;27.50;26.50;;;20.70;62.90;;;;;;5032023;28;20896;-64
2024/02/16 10:25:31;;;;;;;28.00;26.90;;;20.70;62.80;;;;;;5035794;28;20495;-64
2024/02/16 10:27:59;;;;;;;27.60;26.60;;;20.70;62.80;;;;;;5033895;28;20485;-65
2024/02/16 10:30:31;;;;;;;27.33;26.23;;;20.70;62.70;;;;;;5031795;28;20808;-65
2024/02/16 10:32:59;;;;;;;27.30;26.20;;;20.70;62.70;;;;;;5077768;22;20494;-66
2024/02/16 10:35:29;;;;;;;28.17;26.93;;;20.70;62.70;;;;;;5051426;28;20432;-65
2024/02/16 10:37:57;;;;;;;27.77;26.77;;;20.70;62.60;;;;;;5051505;28;20506;-65
2024/02/16 10:40:25;;;;;;;28.53;27.33;;;20.70;62.60;;;;;;5051398;28;20476;-65
2024/02/16 10:42:52;;;;;;;28.77;27.60;;;20.70;62.60;;;;;;5050243;28;20986;-65
2024/02/16 10:45:19;;;;;;;27.73;26.73;;;20.70;62.60;;;;;;5039762;28;20444;-66
2024/02/16 10:47:46;;;;;;;26.50;25.50;;;20.70;62.60;;;;;;5039376;28;20533;-65
2024/02/16 10:50:13;;;;;;;27.33;26.23;;;20.70;62.50;;;;;;5042938;28;20476;-65
2024/02/16 10:52:45;;;;;;;27.30;26.20;;;20.70;62.50;;;;;;5042968;28;20511;-65
2024/02/16 10:55:12;;;;;;;26.30;25.20;;;20.70;62.40;;;;;;5031664;28;20866;-66
2024/02/16 10:57:40;;;;;;;28.50;27.30;;;20.70;62.40;;;;;;5039450;28;20477;-65
2024/02/16 11:00:11;;;;;;;28.47;27.23;;;20.70;62.40;;;;;;5042468;28;20444;-65
2024/02/16 11:02:56;;;;;;;28.20;27.10;;;20.70;62.30;;;;;;5043005;28;20478;-65
2024/02/16 11:05:34;;;;;;;27.50;26.40;;;20.70;62.30;;;;;;5033022;28;20948;-65
2024/02/16 11:08:12;;;;;;;28.63;27.43;;;20.70;62.30;;;;;;5041508;28;20444;-66
2024/02/16 11:10:39;;;;;;;29.30;28.00;;;20.70;62.30;;;;;;5042773;28;20447;-65
2024/02/16 11:13:06;;;;;;;27.43;26.43;;;20.70;62.30;;;;;;5039827;28;21025;-65
2024/02/16 11:15:36;;;;;;;28.50;27.30;;;20.70;62.20;;;;;;5039304;28;20499;-66
2024/02/16 11:18:04;;;;;;;28.03;27.03;;;20.70;62.20;;;;;;5041527;28;20507;-65
2024/02/16 11:20:39;;;;;;;27.20;26.10;;;20.70;62.20;;;;;;5042673;28;20495;-65
2024/02/16 11:23:09;;;;;;;27.83;26.73;;;20.70;62.20;;;;;;5039992;28;20541;-65
2024/02/16 11:25:37;;;;;;;28.43;27.43;;;20.70;62.20;;;;;;5039116;28;20464;-66
2024/02/16 11:28:05;;;;;;;29.90;28.70;;;20.70;62.10;;;;;;5041628;28;20445;-65
2024/02/16 11:30:35;;;;;;;28.70;27.60;;;20.70;62.20;;;;;;5042684;28;20475;-65
2024/02/16 11:33:02;;;;;;;29.00;27.90;;;20.70;62.10;;;;;;5040271;28;20486;-66
2024/02/16 11:35:29;;;;;;;28.70;27.60;;;20.70;62.10;;;;;;5039227;28;20441;-65
2024/02/16 11:37:58;;;;;;;28.33;27.23;;;20.70;62.00;;;;;;5040258;28;20480;-66
2024/02/16 11:40:26;;;;;;;27.23;26.23;;;20.70;62.00;;;;;;5042440;28;20531;-65
2024/02/16 11:42:59;;;;;;;28.17;27.07;;;20.70;61.90;;;;;;5041575;28;20766;-65
2024/02/16 11:45:26;;;;;;;27.83;26.73;;;20.70;61.90;;;;;;5039227;28;20468;-65
2024/02/16 11:48:05;;;;;;;27.37;26.10;;;20.70;61.90;;;;;;5039852;28;20445;-65
2024/02/16 11:50:31;;;;;;;28.00;27.00;;;20.70;61.90;;;;;;5042451;28;20464;-65
2024/02/16 11:52:58;;;;;;;26.10;25.00;;;20.70;61.80;;;;;;5040782;28;20595;-65
2024/02/16 11:55:27;;;;;;;26.50;25.50;;;20.70;61.80;;;;;;5038904;28;20483;-65
2024/02/16 11:57:54;;;;;;;27.00;26.00;;;20.70;61.80;;;;;;5039637;28;20445;-66
2024/02/16 12:00:21;;;;;;;28.37;27.27;;;20.70;61.80;;;;;;5045443;28;20528;-65
2024/02/16 12:02:48;;;;;;;27.50;26.47;;;20.70;61.80;;;;;;5045910;28;20543;-65
2024/02/16 12:05:16;;;;;;;27.70;26.60;;;20.70;61.80;;;;;;5042366;28;20936;-65
2024/02/16 12:07:44;;;;;;;27.73;26.63;;;20.70;61.80;;;;;;5042468;28;20451;-65
2024/02/16 12:10:12;;;;;;;27.20;26.20;;;20.70;61.80;;;;;;5045304;28;20947;-65
2024/02/16 12:12:42;;;;;;;27.00;25.80;;;20.70;61.80;;;;;;5045774;28;20507;-65
2024/02/16 12:15:13;;;;;;;28.27;27.17;;;20.70;61.80;;;;;;5042967;28;20972;-65
2024/02/16 12:17:40;;;;;;;27.60;26.60;;;20.70;61.70;;;;;;5042387;28;20449;-66
2024/02/16 12:20:13;;;;;;;28.43;27.33;;;20.70;61.70;;;;;;5044573;28;20473;-66
2024/02/16 12:22:40;;;;;;;28.50;27.40;;;20.70;61.70;;;;;;5045733;28;20467;-65
2024/02/16 12:25:07;;;;;;;28.90;27.60;;;20.70;61.70;;;;;;5043155;28;20509;-66
2024/02/16 12:27:34;;;;;;;29.30;28.20;;;20.70;61.60;;;;;;5042346;28;20469;-66
2024/02/16 12:30:03;;;;;;;28.23;27.13;;;20.70;61.60;;;;;;5043624;28;20468;-65
2024/02/16 12:32:30;;;;;;;29.80;28.60;;;20.70;61.60;;;;;;5045168;28;20537;-66